sensor_id;sensor_type;location;lat;lon;timestamp;P1;durP1;ratioP1;P2;durP2;ratioP2
2386;SDS011;49473;50.772;8.768;2023-09-18T00:00:23;9.67;;;8.40;;
2386;SDS011;49473;50.772;8.768;2023-09-18T00:02:50;8.07;;;7.23;;
2386;SDS011;49473;50.772;8.768;2023-09-18T00:05:17;8.47;;;7.77;;
2386;SDS011;49473;50.772;8.768;2023-09-18T00:07:44;8.50;;;7.40;;
2386;SDS011;49473;50.772;8.768;2023-09-18T00:10:11;10.57;;;6.70;;
2386;SDS011;49473;50.772;8.768;2023-09-18T00:12:38;12.67;;;7.70;;
2386;SDS011;49473;50.772;8.768;2023-09-18T00:15:07;10.37;;;8.13;;
2386;SDS011;49473;50.772;8.768;2023-09-18T00:17:34;8.77;;;7.80;;
2386;SDS011;49473;50.772;8.768;2023-09-18T00:20:01;9.60;;;7.90;;
2386;SDS011;49473;50.772;8.768;2023-09-18T00:22:30;12.60;;;7.37;;
2386;SDS011;49473;50.772;8.768;2023-09-18T00:24:56;7.60;;;6.63;;
2386;SDS011;49473;50.772;8.768;2023-09-18T00:27:23;9.07;;;7.10;;
2386;SDS011;49473;50.772;8.768;2023-09-18T00:29:50;8.03;;;7.00;;
2386;SDS011;49473;50.772;8.768;2023-09-18T00:32:18;9.40;;;7.20;;
2386;SDS011;49473;50.772;8.768;2023-09-18T00:34:45;8.10;;;7.30;;
2386;SDS011;49473;50.772;8.768;2023-09-18T00:37:12;9.33;;;8.40;;
2386;SDS011;49473;50.772;8.768;2023-09-18T00:39:38;10.00;;;7.47;;
2386;SDS011;49473;50.772;8.768;2023-09-18T00:42:05;8.73;;;7.93;;
2386;SDS011;49473;50.772;8.768;2023-09-18T00:44:32;8.97;;;8.17;;
2386;SDS011;49473;50.772;8.768;2023-09-18T00:46:59;9.03;;;8.00;;
2386;SDS011;49473;50.772;8.768;2023-09-18T00:49:27;8.20;;;7.17;;
2386;SDS011;49473;50.772;8.768;2023-09-18T00:51:53;8.07;;;7.37;;
2386;SDS011;49473;50.772;8.768;2023-09-18T00:54:20;8.93;;;7.33;;
2386;SDS011;49473;50.772;8.768;2023-09-18T00:56:48;9.77;;;7.57;;
2386;SDS011;49473;50.772;8.768;2023-09-18T00:59:19;7.60;;;6.77;;
2386;SDS011;49473;50.772;8.768;2023-09-18T01:01:46;8.60;;;7.77;;
2386;SDS011;49473;50.772;8.768;2023-09-18T01:04:14;7.77;;;7.07;;
2386;SDS011;49473;50.772;8.768;2023-09-18T01:06:43;11.67;;;7.23;;
2386;SDS011;49473;50.772;8.768;2023-09-18T01:09:10;7.30;;;6.60;;
2386;SDS011;49473;50.772;8.768;2023-09-18T01:11:43;7.93;;;7.20;;
2386;SDS011;49473;50.772;8.768;2023-09-18T01:14:16;7.93;;;7.23;;
2386;SDS011;49473;50.772;8.768;2023-09-18T01:16:47;10.50;;;6.70;;
2386;SDS011;49473;50.772;8.768;2023-09-18T01:19:28;8.60;;;7.80;;
2386;SDS011;49473;50.772;8.768;2023-09-18T01:22:04;9.43;;;7.40;;
2386;SDS011;49473;50.772;8.768;2023-09-18T01:24:33;11.23;;;7.60;;
2386;SDS011;49473;50.772;8.768;2023-09-18T01:27:01;8.80;;;7.87;;
2386;SDS011;49473;50.772;8.768;2023-09-18T01:29:29;8.03;;;7.20;;
2386;SDS011;49473;50.772;8.768;2023-09-18T01:31:56;8.30;;;7.50;;
2386;SDS011;49473;50.772;8.768;2023-09-18T01:34:25;7.90;;;7.10;;
2386;SDS011;49473;50.772;8.768;2023-09-18T01:36:57;8.33;;;7.27;;
2386;SDS011;49473;50.772;8.768;2023-09-18T01:39:24;8.97;;;7.50;;
2386;SDS011;49473;50.772;8.768;2023-09-18T01:41:57;8.17;;;7.40;;
2386;SDS011;49473;50.772;8.768;2023-09-18T01:44:25;9.90;;;7.43;;
2386;SDS011;49473;50.772;8.768;2023-09-18T01:46:52;13.13;;;7.80;;
2386;SDS011;49473;50.772;8.768;2023-09-18T01:49:26;8.93;;;7.03;;
2386;SDS011;49473;50.772;8.768;2023-09-18T01:51:53;11.30;;;7.93;;
2386;SDS011;49473;50.772;8.768;2023-09-18T01:54:20;10.27;;;7.43;;
2386;SDS011;49473;50.772;8.768;2023-09-18T01:56:47;9.20;;;7.37;;
2386;SDS011;49473;50.772;8.768;2023-09-18T01:59:15;9.37;;;6.43;;
2386;SDS011;49473;50.772;8.768;2023-09-18T02:01:43;9.40;;;6.43;;
2386;SDS011;49473;50.772;8.768;2023-09-18T02:04:09;10.97;;;6.23;;
2386;SDS011;49473;50.772;8.768;2023-09-18T02:06:36;7.60;;;6.93;;
2386;SDS011;49473;50.772;8.768;2023-09-18T02:09:03;9.67;;;6.70;;
2386;SDS011;49473;50.772;8.768;2023-09-18T02:11:30;10.00;;;6.60;;
2386;SDS011;49473;50.772;8.768;2023-09-18T02:13:57;7.17;;;6.33;;
2386;SDS011;49473;50.772;8.768;2023-09-18T02:16:25;12.47;;;6.50;;
2386;SDS011;49473;50.772;8.768;2023-09-18T02:18:54;8.77;;;7.97;;
2386;SDS011;49473;50.772;8.768;2023-09-18T02:21:20;7.80;;;7.20;;
2386;SDS011;49473;50.772;8.768;2023-09-18T02:23:48;8.83;;;6.97;;
2386;SDS011;49473;50.772;8.768;2023-09-18T02:26:16;7.77;;;7.10;;
2386;SDS011;49473;50.772;8.768;2023-09-18T02:28:43;8.93;;;7.97;;
2386;SDS011;49473;50.772;8.768;2023-09-18T02:31:09;10.20;;;8.33;;
2386;SDS011;49473;50.772;8.768;2023-09-18T02:33:37;8.23;;;7.00;;
2386;SDS011;49473;50.772;8.768;2023-09-18T02:36:05;7.53;;;6.83;;
2386;SDS011;49473;50.772;8.768;2023-09-18T02:38:32;13.73;;;7.20;;
2386;SDS011;49473;50.772;8.768;2023-09-18T02:40:59;7.67;;;6.97;;
2386;SDS011;49473;50.772;8.768;2023-09-18T02:43:26;8.20;;;7.40;;
2386;SDS011;49473;50.772;8.768;2023-09-18T02:45:53;8.10;;;7.30;;
2386;SDS011;49473;50.772;8.768;2023-09-18T02:48:20;8.37;;;7.57;;
2386;SDS011;49473;50.772;8.768;2023-09-18T02:50:48;9.00;;;7.40;;
2386;SDS011;49473;50.772;8.768;2023-09-18T02:53:16;9.20;;;7.47;;
2386;SDS011;49473;50.772;8.768;2023-09-18T02:55:44;7.63;;;6.90;;
2386;SDS011;49473;50.772;8.768;2023-09-18T02:58:11;7.87;;;6.93;;
2386;SDS011;49473;50.772;8.768;2023-09-18T03:00:40;7.30;;;6.80;;
2386;SDS011;49473;50.772;8.768;2023-09-18T03:03:08;12.83;;;8.57;;
2386;SDS011;49473;50.772;8.768;2023-09-18T03:05:35;9.67;;;8.77;;
2386;SDS011;49473;50.772;8.768;2023-09-18T03:08:03;8.97;;;8.27;;
2386;SDS011;49473;50.772;8.768;2023-09-18T03:10:32;9.37;;;8.47;;
2386;SDS011;49473;50.772;8.768;2023-09-18T03:13:00;9.17;;;8.37;;
2386;SDS011;49473;50.772;8.768;2023-09-18T03:15:26;10.53;;;9.50;;
2386;SDS011;49473;50.772;8.768;2023-09-18T03:17:53;9.53;;;8.80;;
2386;SDS011;49473;50.772;8.768;2023-09-18T03:20:21;8.40;;;7.73;;
2386;SDS011;49473;50.772;8.768;2023-09-18T03:22:48;8.70;;;7.90;;
2386;SDS011;49473;50.772;8.768;2023-09-18T03:25:17;8.57;;;7.77;;
2386;SDS011;49473;50.772;8.768;2023-09-18T03:27:44;9.10;;;8.30;;
2386;SDS011;49473;50.772;8.768;2023-09-18T03:30:10;9.80;;;8.27;;
2386;SDS011;49473;50.772;8.768;2023-09-18T03:32:40;8.40;;;7.63;;
2386;SDS011;49473;50.772;8.768;2023-09-18T03:35:07;10.30;;;7.80;;
2386;SDS011;49473;50.772;8.768;2023-09-18T03:37:40;8.70;;;7.80;;
2386;SDS011;49473;50.772;8.768;2023-09-18T03:40:08;8.67;;;7.70;;
2386;SDS011;49473;50.772;8.768;2023-09-18T03:42:36;9.17;;;8.27;;
2386;SDS011;49473;50.772;8.768;2023-09-18T03:45:05;11.30;;;7.83;;
2386;SDS011;49473;50.772;8.768;2023-09-18T03:47:33;9.37;;;8.57;;
2386;SDS011;49473;50.772;8.768;2023-09-18T03:50:01;10.67;;;8.83;;
2386;SDS011;49473;50.772;8.768;2023-09-18T03:52:27;9.20;;;8.33;;
2386;SDS011;49473;50.772;8.768;2023-09-18T03:54:54;10.27;;;8.60;;
2386;SDS011;49473;50.772;8.768;2023-09-18T03:57:21;10.37;;;9.33;;
2386;SDS011;49473;50.772;8.768;2023-09-18T03:59:49;9.17;;;8.40;;
2386;SDS011;49473;50.772;8.768;2023-09-18T04:02:16;9.60;;;8.83;;
2386;SDS011;49473;50.772;8.768;2023-09-18T04:04:43;10.37;;;9.40;;
2386;SDS011;49473;50.772;8.768;2023-09-18T04:07:10;9.70;;;8.90;;
2386;SDS011;49473;50.772;8.768;2023-09-18T04:09:41;8.60;;;7.90;;
2386;SDS011;49473;50.772;8.768;2023-09-18T04:12:08;7.90;;;7.27;;
2386;SDS011;49473;50.772;8.768;2023-09-18T04:14:34;9.50;;;8.60;;
2386;SDS011;49473;50.772;8.768;2023-09-18T04:17:03;9.13;;;8.43;;
2386;SDS011;49473;50.772;8.768;2023-09-18T04:19:30;9.23;;;8.47;;
2386;SDS011;49473;50.772;8.768;2023-09-18T04:21:57;9.43;;;8.53;;
2386;SDS011;49473;50.772;8.768;2023-09-18T04:24:25;9.03;;;8.33;;
2386;SDS011;49473;50.772;8.768;2023-09-18T04:26:52;11.07;;;9.00;;
2386;SDS011;49473;50.772;8.768;2023-09-18T04:29:19;9.53;;;8.40;;
2386;SDS011;49473;50.772;8.768;2023-09-18T04:31:46;9.20;;;8.57;;
2386;SDS011;49473;50.772;8.768;2023-09-18T04:34:14;9.27;;;8.47;;
2386;SDS011;49473;50.772;8.768;2023-09-18T04:36:41;10.37;;;9.33;;
2386;SDS011;49473;50.772;8.768;2023-09-18T04:39:08;8.93;;;8.10;;
2386;SDS011;49473;50.772;8.768;2023-09-18T04:41:35;8.23;;;7.67;;
2386;SDS011;49473;50.772;8.768;2023-09-18T04:44:04;13.00;;;9.33;;
2386;SDS011;49473;50.772;8.768;2023-09-18T04:46:32;9.10;;;8.30;;
2386;SDS011;49473;50.772;8.768;2023-09-18T04:48:59;9.60;;;8.70;;
2386;SDS011;49473;50.772;8.768;2023-09-18T04:51:30;9.53;;;8.60;;
2386;SDS011;49473;50.772;8.768;2023-09-18T04:53:57;9.30;;;8.40;;
2386;SDS011;49473;50.772;8.768;2023-09-18T04:56:24;9.60;;;8.70;;
2386;SDS011;49473;50.772;8.768;2023-09-18T04:58:52;8.97;;;8.30;;
2386;SDS011;49473;50.772;8.768;2023-09-18T05:01:18;8.80;;;8.10;;
2386;SDS011;49473;50.772;8.768;2023-09-18T05:03:45;8.93;;;8.10;;
2386;SDS011;49473;50.772;8.768;2023-09-18T05:06:13;9.03;;;8.13;;
2386;SDS011;49473;50.772;8.768;2023-09-18T05:08:42;9.00;;;8.10;;
2386;SDS011;49473;50.772;8.768;2023-09-18T05:11:09;8.27;;;7.57;;
2386;SDS011;49473;50.772;8.768;2023-09-18T05:13:36;8.47;;;7.67;;
2386;SDS011;49473;50.772;8.768;2023-09-18T05:16:03;8.20;;;7.43;;
2386;SDS011;49473;50.772;8.768;2023-09-18T05:18:30;8.53;;;7.13;;
2386;SDS011;49473;50.772;8.768;2023-09-18T05:20:57;8.23;;;7.43;;
2386;SDS011;49473;50.772;8.768;2023-09-18T05:23:24;5.50;;;5.00;;
2386;SDS011;49473;50.772;8.768;2023-09-18T05:25:52;6.10;;;5.27;;
2386;SDS011;49473;50.772;8.768;2023-09-18T05:28:19;5.17;;;4.60;;
2386;SDS011;49473;50.772;8.768;2023-09-18T05:30:45;6.07;;;4.47;;
2386;SDS011;49473;50.772;8.768;2023-09-18T05:33:12;8.80;;;5.20;;
2386;SDS011;49473;50.772;8.768;2023-09-18T05:35:40;4.80;;;4.37;;
2386;SDS011;49473;50.772;8.768;2023-09-18T05:38:07;5.03;;;4.47;;
2386;SDS011;49473;50.772;8.768;2023-09-18T05:40:35;5.50;;;5.00;;
2386;SDS011;49473;50.772;8.768;2023-09-18T05:43:03;5.60;;;5.03;;
2386;SDS011;49473;50.772;8.768;2023-09-18T05:45:29;5.80;;;4.90;;
2386;SDS011;49473;50.772;8.768;2023-09-18T05:47:57;5.00;;;4.60;;
2386;SDS011;49473;50.772;8.768;2023-09-18T05:50:28;5.07;;;4.57;;
2386;SDS011;49473;50.772;8.768;2023-09-18T05:52:56;4.80;;;4.30;;
2386;SDS011;49473;50.772;8.768;2023-09-18T05:55:24;5.40;;;4.43;;
2386;SDS011;49473;50.772;8.768;2023-09-18T05:57:51;5.27;;;4.60;;
2386;SDS011;49473;50.772;8.768;2023-09-18T06:00:20;4.90;;;4.00;;
2386;SDS011;49473;50.772;8.768;2023-09-18T06:02:47;7.07;;;5.00;;
2386;SDS011;49473;50.772;8.768;2023-09-18T06:05:14;6.23;;;5.60;;
2386;SDS011;49473;50.772;8.768;2023-09-18T06:07:42;5.00;;;4.67;;
2386;SDS011;49473;50.772;8.768;2023-09-18T06:10:10;5.93;;;4.63;;
2386;SDS011;49473;50.772;8.768;2023-09-18T06:12:37;5.03;;;4.63;;
2386;SDS011;49473;50.772;8.768;2023-09-18T06:15:05;5.60;;;5.10;;
2386;SDS011;49473;50.772;8.768;2023-09-18T06:17:34;7.57;;;4.90;;
2386;SDS011;49473;50.772;8.768;2023-09-18T06:20:01;5.40;;;4.90;;
2386;SDS011;49473;50.772;8.768;2023-09-18T06:22:29;9.30;;;6.03;;
2386;SDS011;49473;50.772;8.768;2023-09-18T06:24:56;7.37;;;5.70;;
2386;SDS011;49473;50.772;8.768;2023-09-18T06:27:23;5.50;;;4.73;;
2386;SDS011;49473;50.772;8.768;2023-09-18T06:29:50;4.77;;;4.10;;
2386;SDS011;49473;50.772;8.768;2023-09-18T06:32:16;5.30;;;4.80;;
2386;SDS011;49473;50.772;8.768;2023-09-18T06:34:44;5.47;;;4.43;;
2386;SDS011;49473;50.772;8.768;2023-09-18T06:37:12;7.20;;;4.97;;
2386;SDS011;49473;50.772;8.768;2023-09-18T06:39:39;6.27;;;4.90;;
2386;SDS011;49473;50.772;8.768;2023-09-18T06:42:06;6.63;;;4.60;;
2386;SDS011;49473;50.772;8.768;2023-09-18T06:44:33;5.97;;;4.80;;
2386;SDS011;49473;50.772;8.768;2023-09-18T06:47:00;6.27;;;3.90;;
2386;SDS011;49473;50.772;8.768;2023-09-18T06:49:26;5.07;;;4.17;;
2386;SDS011;49473;50.772;8.768;2023-09-18T06:51:54;6.50;;;4.77;;
2386;SDS011;49473;50.772;8.768;2023-09-18T06:54:21;7.20;;;5.13;;
2386;SDS011;49473;50.772;8.768;2023-09-18T06:56:48;6.57;;;3.90;;
2386;SDS011;49473;50.772;8.768;2023-09-18T06:59:15;5.70;;;4.03;;
2386;SDS011;49473;50.772;8.768;2023-09-18T07:01:42;4.93;;;4.23;;
2386;SDS011;49473;50.772;8.768;2023-09-18T07:04:08;7.67;;;4.33;;
2386;SDS011;49473;50.772;8.768;2023-09-18T07:06:35;5.07;;;4.63;;
2386;SDS011;49473;50.772;8.768;2023-09-18T07:09:04;9.10;;;4.70;;
2386;SDS011;49473;50.772;8.768;2023-09-18T07:11:32;5.40;;;4.47;;
2386;SDS011;49473;50.772;8.768;2023-09-18T07:13:58;7.63;;;4.40;;
2386;SDS011;49473;50.772;8.768;2023-09-18T07:16:30;7.87;;;4.50;;
2386;SDS011;49473;50.772;8.768;2023-09-18T07:18:57;6.40;;;4.03;;
2386;SDS011;49473;50.772;8.768;2023-09-18T07:21:24;4.27;;;3.87;;
2386;SDS011;49473;50.772;8.768;2023-09-18T07:23:51;7.40;;;4.43;;
2386;SDS011;49473;50.772;8.768;2023-09-18T07:26:19;6.50;;;4.60;;
2386;SDS011;49473;50.772;8.768;2023-09-18T07:28:46;4.90;;;4.10;;
2386;SDS011;49473;50.772;8.768;2023-09-18T07:31:13;6.33;;;3.60;;
2386;SDS011;49473;50.772;8.768;2023-09-18T07:33:40;9.50;;;4.40;;
2386;SDS011;49473;50.772;8.768;2023-09-18T07:36:07;6.40;;;4.43;;
2386;SDS011;49473;50.772;8.768;2023-09-18T07:38:35;9.07;;;4.63;;
2386;SDS011;49473;50.772;8.768;2023-09-18T07:41:02;7.90;;;4.10;;
2386;SDS011;49473;50.772;8.768;2023-09-18T07:43:30;7.17;;;4.30;;
2386;SDS011;49473;50.772;8.768;2023-09-18T07:45:57;12.17;;;4.67;;
2386;SDS011;49473;50.772;8.768;2023-09-18T07:48:24;6.20;;;3.70;;
2386;SDS011;49473;50.772;8.768;2023-09-18T07:50:51;6.50;;;3.70;;
2386;SDS011;49473;50.772;8.768;2023-09-18T07:53:19;5.30;;;3.93;;
2386;SDS011;49473;50.772;8.768;2023-09-18T07:55:47;7.77;;;4.97;;
2386;SDS011;49473;50.772;8.768;2023-09-18T07:58:15;5.33;;;3.80;;
2386;SDS011;49473;50.772;8.768;2023-09-18T08:00:43;6.70;;;4.30;;
2386;SDS011;49473;50.772;8.768;2023-09-18T08:03:10;4.83;;;3.97;;
2386;SDS011;49473;50.772;8.768;2023-09-18T08:05:36;6.77;;;4.40;;
2386;SDS011;49473;50.772;8.768;2023-09-18T08:08:03;3.93;;;3.60;;
2386;SDS011;49473;50.772;8.768;2023-09-18T08:10:31;7.17;;;4.10;;
2386;SDS011;49473;50.772;8.768;2023-09-18T08:12:58;5.87;;;4.00;;
2386;SDS011;49473;50.772;8.768;2023-09-18T08:15:24;7.27;;;3.73;;
2386;SDS011;49473;50.772;8.768;2023-09-18T08:17:53;7.77;;;4.10;;
2386;SDS011;49473;50.772;8.768;2023-09-18T08:20:21;8.07;;;3.93;;
2386;SDS011;49473;50.772;8.768;2023-09-18T08:22:48;6.00;;;3.67;;
2386;SDS011;49473;50.772;8.768;2023-09-18T08:25:15;4.60;;;3.27;;
2386;SDS011;49473;50.772;8.768;2023-09-18T08:27:42;5.00;;;3.37;;
2386;SDS011;49473;50.772;8.768;2023-09-18T08:30:10;7.90;;;4.07;;
2386;SDS011;49473;50.772;8.768;2023-09-18T08:32:37;7.03;;;3.53;;
2386;SDS011;49473;50.772;8.768;2023-09-18T08:35:06;13.13;;;3.67;;
2386;SDS011;49473;50.772;8.768;2023-09-18T08:37:34;5.73;;;3.60;;
2386;SDS011;49473;50.772;8.768;2023-09-18T08:40:00;6.50;;;4.00;;
2386;SDS011;49473;50.772;8.768;2023-09-18T08:42:34;7.00;;;4.10;;
2386;SDS011;49473;50.772;8.768;2023-09-18T08:45:02;5.70;;;3.53;;
2386;SDS011;49473;50.772;8.768;2023-09-18T08:47:34;8.07;;;3.03;;
2386;SDS011;49473;50.772;8.768;2023-09-18T08:50:01;6.50;;;3.17;;
2386;SDS011;49473;50.772;8.768;2023-09-18T08:52:30;6.53;;;3.30;;
2386;SDS011;49473;50.772;8.768;2023-09-18T08:54:56;6.20;;;3.20;;
2386;SDS011;49473;50.772;8.768;2023-09-18T08:57:24;6.60;;;3.47;;
2386;SDS011;49473;50.772;8.768;2023-09-18T08:59:52;4.90;;;2.83;;
2386;SDS011;49473;50.772;8.768;2023-09-18T09:02:22;4.80;;;3.20;;
2386;SDS011;49473;50.772;8.768;2023-09-18T09:04:49;6.33;;;2.87;;
2386;SDS011;49473;50.772;8.768;2023-09-18T09:07:16;5.33;;;2.83;;
2386;SDS011;49473;50.772;8.768;2023-09-18T09:09:44;4.90;;;3.57;;
2386;SDS011;49473;50.772;8.768;2023-09-18T09:12:12;3.80;;;2.80;;
2386;SDS011;49473;50.772;8.768;2023-09-18T09:14:39;5.90;;;2.87;;
2386;SDS011;49473;50.772;8.768;2023-09-18T09:17:07;3.40;;;2.80;;
2386;SDS011;49473;50.772;8.768;2023-09-18T09:19:35;5.30;;;2.90;;
2386;SDS011;49473;50.772;8.768;2023-09-18T09:22:07;3.73;;;2.57;;
2386;SDS011;49473;50.772;8.768;2023-09-18T09:24:38;2.97;;;2.27;;
2386;SDS011;49473;50.772;8.768;2023-09-18T09:27:07;4.30;;;2.70;;
2386;SDS011;49473;50.772;8.768;2023-09-18T09:29:34;3.97;;;2.47;;
2386;SDS011;49473;50.772;8.768;2023-09-18T09:32:14;4.10;;;2.47;;
2386;SDS011;49473;50.772;8.768;2023-09-18T09:34:42;6.10;;;2.80;;
2386;SDS011;49473;50.772;8.768;2023-09-18T09:37:09;5.47;;;2.70;;
2386;SDS011;49473;50.772;8.768;2023-09-18T09:39:45;7.20;;;2.87;;
2386;SDS011;49473;50.772;8.768;2023-09-18T09:42:16;6.00;;;3.30;;
2386;SDS011;49473;50.772;8.768;2023-09-18T09:44:55;8.63;;;2.77;;
2386;SDS011;49473;50.772;8.768;2023-09-18T09:47:32;6.50;;;2.70;;
2386;SDS011;49473;50.772;8.768;2023-09-18T09:50:05;5.80;;;2.50;;
2386;SDS011;49473;50.772;8.768;2023-09-18T09:52:35;7.73;;;2.60;;
2386;SDS011;49473;50.772;8.768;2023-09-18T09:55:13;3.57;;;2.37;;
2386;SDS011;49473;50.772;8.768;2023-09-18T09:57:50;9.47;;;2.77;;
2386;SDS011;49473;50.772;8.768;2023-09-18T10:00:19;4.23;;;2.50;;
2386;SDS011;49473;50.772;8.768;2023-09-18T10:02:58;4.17;;;2.50;;
2386;SDS011;49473;50.772;8.768;2023-09-18T10:05:28;3.07;;;2.77;;
2386;SDS011;49473;50.772;8.768;2023-09-18T10:07:58;2.50;;;2.30;;
2386;SDS011;49473;50.772;8.768;2023-09-18T10:10:28;3.50;;;2.27;;
2386;SDS011;49473;50.772;8.768;2023-09-18T10:13:00;4.00;;;2.63;;
2386;SDS011;49473;50.772;8.768;2023-09-18T10:15:34;4.10;;;2.80;;
2386;SDS011;49473;50.772;8.768;2023-09-18T10:18:04;5.70;;;2.50;;
2386;SDS011;49473;50.772;8.768;2023-09-18T10:20:37;2.40;;;2.20;;
2386;SDS011;49473;50.772;8.768;2023-09-18T10:23:09;4.60;;;2.30;;
2386;SDS011;49473;50.772;8.768;2023-09-18T10:25:45;2.73;;;2.00;;
2386;SDS011;49473;50.772;8.768;2023-09-18T10:28:18;6.80;;;2.70;;
2386;SDS011;49473;50.772;8.768;2023-09-18T10:30:46;3.37;;;2.70;;
2386;SDS011;49473;50.772;8.768;2023-09-18T10:33:14;5.40;;;2.60;;
2386;SDS011;49473;50.772;8.768;2023-09-18T10:35:42;2.77;;;2.50;;
2386;SDS011;49473;50.772;8.768;2023-09-18T10:38:11;2.63;;;2.23;;
2386;SDS011;49473;50.772;8.768;2023-09-18T10:40:40;4.50;;;2.90;;
2386;SDS011;49473;50.772;8.768;2023-09-18T10:43:07;4.97;;;2.80;;
2386;SDS011;49473;50.772;8.768;2023-09-18T10:45:38;2.87;;;2.57;;
2386;SDS011;49473;50.772;8.768;2023-09-18T10:48:06;5.13;;;2.47;;
2386;SDS011;49473;50.772;8.768;2023-09-18T10:50:35;5.83;;;2.57;;
2386;SDS011;49473;50.772;8.768;2023-09-18T10:53:04;4.40;;;2.77;;
2386;SDS011;49473;50.772;8.768;2023-09-18T10:55:31;4.87;;;2.40;;
2386;SDS011;49473;50.772;8.768;2023-09-18T10:57:59;4.83;;;2.47;;
2386;SDS011;49473;50.772;8.768;2023-09-18T11:00:27;6.67;;;3.47;;
2386;SDS011;49473;50.772;8.768;2023-09-18T11:03:10;3.67;;;2.20;;
2386;SDS011;49473;50.772;8.768;2023-09-18T11:05:38;4.37;;;3.00;;
2386;SDS011;49473;50.772;8.768;2023-09-18T11:08:24;4.40;;;3.07;;
2386;SDS011;49473;50.772;8.768;2023-09-18T11:10:58;4.87;;;2.67;;
2386;SDS011;49473;50.772;8.768;2023-09-18T11:13:30;3.40;;;2.40;;
2386;SDS011;49473;50.772;8.768;2023-09-18T11:16:00;6.33;;;3.83;;
2386;SDS011;49473;50.772;8.768;2023-09-18T11:18:33;8.37;;;6.53;;
2386;SDS011;49473;50.772;8.768;2023-09-18T11:21:09;5.47;;;3.50;;
2386;SDS011;49473;50.772;8.768;2023-09-18T11:23:37;6.57;;;5.40;;
2386;SDS011;49473;50.772;8.768;2023-09-18T11:26:07;5.67;;;4.00;;
2386;SDS011;49473;50.772;8.768;2023-09-18T11:28:35;4.90;;;3.47;;
2386;SDS011;49473;50.772;8.768;2023-09-18T11:31:03;5.60;;;3.27;;
2386;SDS011;49473;50.772;8.768;2023-09-18T11:33:33;2.90;;;2.60;;
2386;SDS011;49473;50.772;8.768;2023-09-18T11:36:03;3.50;;;2.57;;
2386;SDS011;49473;50.772;8.768;2023-09-18T11:38:50;4.33;;;3.00;;
2386;SDS011;49473;50.772;8.768;2023-09-18T11:41:24;3.73;;;2.30;;
2386;SDS011;49473;50.772;8.768;2023-09-18T11:43:52;2.47;;;2.20;;
2386;SDS011;49473;50.772;8.768;2023-09-18T11:46:41;4.10;;;1.87;;
2386;SDS011;49473;50.772;8.768;2023-09-18T11:49:12;2.40;;;2.10;;
2386;SDS011;49473;50.772;8.768;2023-09-18T11:51:39;2.37;;;2.20;;
2386;SDS011;49473;50.772;8.768;2023-09-18T11:54:07;4.97;;;3.80;;
2386;SDS011;49473;50.772;8.768;2023-09-18T11:56:35;7.37;;;4.43;;
2386;SDS011;49473;50.772;8.768;2023-09-18T11:59:02;6.67;;;3.90;;
2386;SDS011;49473;50.772;8.768;2023-09-18T12:01:30;5.27;;;3.90;;
2386;SDS011;49473;50.772;8.768;2023-09-18T12:04:03;4.63;;;2.87;;
2386;SDS011;49473;50.772;8.768;2023-09-18T12:06:32;3.30;;;3.00;;
2386;SDS011;49473;50.772;8.768;2023-09-18T12:08:59;4.77;;;2.90;;
2386;SDS011;49473;50.772;8.768;2023-09-18T12:11:26;3.73;;;2.33;;
2386;SDS011;49473;50.772;8.768;2023-09-18T12:13:53;2.37;;;1.80;;
2386;SDS011;49473;50.772;8.768;2023-09-18T12:16:20;2.17;;;2.07;;
2386;SDS011;49473;50.772;8.768;2023-09-18T12:18:47;2.60;;;2.40;;
2386;SDS011;49473;50.772;8.768;2023-09-18T12:21:16;2.40;;;2.03;;
2386;SDS011;49473;50.772;8.768;2023-09-18T12:23:44;1.93;;;1.53;;
2386;SDS011;49473;50.772;8.768;2023-09-18T12:26:12;3.10;;;2.17;;
2386;SDS011;49473;50.772;8.768;2023-09-18T12:28:40;2.30;;;2.10;;
2386;SDS011;49473;50.772;8.768;2023-09-18T12:31:09;5.90;;;2.90;;
2386;SDS011;49473;50.772;8.768;2023-09-18T12:33:37;3.20;;;1.93;;
2386;SDS011;49473;50.772;8.768;2023-09-18T12:36:05;2.80;;;2.13;;
2386;SDS011;49473;50.772;8.768;2023-09-18T12:38:34;3.70;;;1.77;;
2386;SDS011;49473;50.772;8.768;2023-09-18T12:41:02;3.70;;;2.60;;
2386;SDS011;49473;50.772;8.768;2023-09-18T12:43:33;1.60;;;1.50;;
2386;SDS011;49473;50.772;8.768;2023-09-18T12:46:01;3.30;;;1.80;;
2386;SDS011;49473;50.772;8.768;2023-09-18T12:48:30;1.90;;;1.80;;
2386;SDS011;49473;50.772;8.768;2023-09-18T12:51:01;4.40;;;1.70;;
2386;SDS011;49473;50.772;8.768;2023-09-18T12:53:29;2.50;;;1.90;;
2386;SDS011;49473;50.772;8.768;2023-09-18T12:56:05;3.60;;;2.37;;
2386;SDS011;49473;50.772;8.768;2023-09-18T12:58:32;2.60;;;2.00;;
2386;SDS011;49473;50.772;8.768;2023-09-18T13:01:03;2.90;;;1.90;;
2386;SDS011;49473;50.772;8.768;2023-09-18T13:03:33;1.70;;;1.60;;
2386;SDS011;49473;50.772;8.768;2023-09-18T13:06:06;2.47;;;1.70;;
2386;SDS011;49473;50.772;8.768;2023-09-18T13:08:34;3.83;;;3.10;;
2386;SDS011;49473;50.772;8.768;2023-09-18T13:11:01;6.00;;;2.00;;
2386;SDS011;49473;50.772;8.768;2023-09-18T13:13:30;4.20;;;2.37;;
2386;SDS011;49473;50.772;8.768;2023-09-18T13:15:58;1.93;;;1.83;;
2386;SDS011;49473;50.772;8.768;2023-09-18T13:18:26;3.40;;;2.17;;
2386;SDS011;49473;50.772;8.768;2023-09-18T13:20:53;1.73;;;1.63;;
2386;SDS011;49473;50.772;8.768;2023-09-18T13:23:20;3.27;;;1.80;;
2386;SDS011;49473;50.772;8.768;2023-09-18T13:25:58;2.73;;;1.97;;
2386;SDS011;49473;50.772;8.768;2023-09-18T13:28:25;2.03;;;1.83;;
2386;SDS011;49473;50.772;8.768;2023-09-18T13:30:53;3.83;;;1.93;;
2386;SDS011;49473;50.772;8.768;2023-09-18T13:33:20;2.43;;;2.00;;
2386;SDS011;49473;50.772;8.768;2023-09-18T13:35:48;2.40;;;1.90;;
2386;SDS011;49473;50.772;8.768;2023-09-18T13:38:15;1.67;;;1.57;;
2386;SDS011;49473;50.772;8.768;2023-09-18T13:40:43;2.43;;;1.90;;
2386;SDS011;49473;50.772;8.768;2023-09-18T13:43:12;2.60;;;2.27;;
2386;SDS011;49473;50.772;8.768;2023-09-18T13:45:41;2.13;;;1.80;;
2386;SDS011;49473;50.772;8.768;2023-09-18T13:48:09;1.70;;;1.60;;
2386;SDS011;49473;50.772;8.768;2023-09-18T13:50:36;2.03;;;1.83;;
2386;SDS011;49473;50.772;8.768;2023-09-18T13:53:03;2.10;;;2.00;;
2386;SDS011;49473;50.772;8.768;2023-09-18T13:55:30;2.30;;;2.10;;
2386;SDS011;49473;50.772;8.768;2023-09-18T13:57:57;2.60;;;1.90;;
2386;SDS011;49473;50.772;8.768;2023-09-18T14:00:24;2.67;;;1.83;;
2386;SDS011;49473;50.772;8.768;2023-09-18T14:02:51;2.40;;;1.93;;
2386;SDS011;49473;50.772;8.768;2023-09-18T14:05:19;2.07;;;1.97;;
2386;SDS011;49473;50.772;8.768;2023-09-18T14:07:46;3.73;;;1.97;;
2386;SDS011;49473;50.772;8.768;2023-09-18T14:10:13;5.50;;;2.50;;
2386;SDS011;49473;50.772;8.768;2023-09-18T14:12:42;2.80;;;2.10;;
2386;SDS011;49473;50.772;8.768;2023-09-18T14:15:10;3.17;;;2.00;;
2386;SDS011;49473;50.772;8.768;2023-09-18T14:17:37;4.90;;;2.10;;
2386;SDS011;49473;50.772;8.768;2023-09-18T14:20:04;2.93;;;2.63;;
2386;SDS011;49473;50.772;8.768;2023-09-18T14:22:33;2.80;;;2.60;;
2386;SDS011;49473;50.772;8.768;2023-09-18T14:25:01;2.53;;;2.33;;
2386;SDS011;49473;50.772;8.768;2023-09-18T14:27:30;3.80;;;2.57;;
2386;SDS011;49473;50.772;8.768;2023-09-18T14:29:57;2.43;;;2.23;;
2386;SDS011;49473;50.772;8.768;2023-09-18T14:32:24;2.60;;;2.20;;
2386;SDS011;49473;50.772;8.768;2023-09-18T14:34:51;2.63;;;2.27;;
2386;SDS011;49473;50.772;8.768;2023-09-18T14:37:17;3.50;;;2.63;;
2386;SDS011;49473;50.772;8.768;2023-09-18T14:39:46;2.80;;;2.43;;
2386;SDS011;49473;50.772;8.768;2023-09-18T14:42:12;3.20;;;3.00;;
2386;SDS011;49473;50.772;8.768;2023-09-18T14:44:39;2.90;;;2.70;;
2386;SDS011;49473;50.772;8.768;2023-09-18T14:47:09;2.50;;;2.40;;
2386;SDS011;49473;50.772;8.768;2023-09-18T14:49:36;3.07;;;2.70;;
2386;SDS011;49473;50.772;8.768;2023-09-18T14:52:04;3.47;;;2.73;;
2386;SDS011;49473;50.772;8.768;2023-09-18T14:54:30;2.80;;;2.60;;
2386;SDS011;49473;50.772;8.768;2023-09-18T14:56:59;3.00;;;2.70;;
2386;SDS011;49473;50.772;8.768;2023-09-18T14:59:27;5.87;;;2.90;;
2386;SDS011;49473;50.772;8.768;2023-09-18T15:01:54;2.73;;;2.53;;
2386;SDS011;49473;50.772;8.768;2023-09-18T15:04:21;2.70;;;2.50;;
2386;SDS011;49473;50.772;8.768;2023-09-18T15:06:47;2.50;;;2.30;;